sensor_id;sensor_type;location;lat;lon;timestamp;temperature;humidity
29413;DHT22;16389;50.126;8.450;2022-09-09T00:04:34;15.80;99.90
29413;DHT22;16389;50.126;8.450;2022-09-09T00:07:21;15.80;99.90
29413;DHT22;16389;50.126;8.450;2022-09-09T00:10:16;15.70;99.90
29413;DHT22;16389;50.126;8.450;2022-09-09T00:12:48;15.70;99.90
29413;DHT22;16389;50.126;8.450;2022-09-09T00:15:20;15.70;99.90
29413;DHT22;16389;50.126;8.450;2022-09-09T00:18:12;15.60;99.90
29413;DHT22;16389;50.126;8.450;2022-09-09T00:20:46;15.50;99.90
29413;DHT22;16389;50.126;8.450;2022-09-09T00:26:04;15.50;99.90
29413;DHT22;16389;50.126;8.450;2022-09-09T00:28:59;15.30;99.90
29413;DHT22;16389;50.126;8.450;2022-09-09T00:31:32;15.30;99.90
29413;DHT22;16389;50.126;8.450;2022-09-09T00:36:40;15.10;99.90
29413;DHT22;16389;50.126;8.450;2022-09-09T00:39:24;15.00;99.90
29413;DHT22;16389;50.126;8.450;2022-09-09T00:44:37;14.90;99.90
29413;DHT22;16389;50.126;8.450;2022-09-09T00:50:00;14.80;99.90
29413;DHT22;16389;50.126;8.450;2022-09-09T00:52:39;14.70;99.90
29413;DHT22;16389;50.126;8.450;2022-09-09T00:55:33;14.70;99.90
29413;DHT22;16389;50.126;8.450;2022-09-09T00:57:59;14.80;99.90
29413;DHT22;16389;50.126;8.450;2022-09-09T01:00:27;14.80;99.90
29413;DHT22;16389;50.126;8.450;2022-09-09T01:05:39;14.80;99.90
29413;DHT22;16389;50.126;8.450;2022-09-09T01:10:49;14.70;99.90
29413;DHT22;16389;50.126;8.450;2022-09-09T01:13:31;14.70;99.90
29413;DHT22;16389;50.126;8.450;2022-09-09T01:16:00;14.60;99.90
29413;DHT22;16389;50.126;8.450;2022-09-09T01:18:57;14.50;99.90
29413;DHT22;16389;50.126;8.450;2022-09-09T01:21:57;14.40;99.90
29413;DHT22;16389;50.126;8.450;2022-09-09T01:27:03;14.10;99.90
29413;DHT22;16389;50.126;8.450;2022-09-09T01:29:30;14.20;99.90
29413;DHT22;16389;50.126;8.450;2022-09-09T01:31:58;14.30;99.90
29413;DHT22;16389;50.126;8.450;2022-09-09T01:34:27;14.30;99.90
29413;DHT22;16389;50.126;8.450;2022-09-09T01:36:59;14.30;99.90
29413;DHT22;16389;50.126;8.450;2022-09-09T01:39:27;14.30;99.90
29413;DHT22;16389;50.126;8.450;2022-09-09T01:41:53;14.30;99.90
29413;DHT22;16389;50.126;8.450;2022-09-09T01:44:20;14.30;99.90
29413;DHT22;16389;50.126;8.450;2022-09-09T01:46:46;14.30;99.90
29413;DHT22;16389;50.126;8.450;2022-09-09T01:49:12;14.40;99.90
29413;DHT22;16389;50.126;8.450;2022-09-09T01:51:39;14.40;99.90
29413;DHT22;16389;50.126;8.450;2022-09-09T01:54:07;14.40;99.90
29413;DHT22;16389;50.126;8.450;2022-09-09T01:56:47;14.30;99.90
29413;DHT22;16389;50.126;8.450;2022-09-09T02:02:26;14.40;99.90
29413;DHT22;16389;50.126;8.450;2022-09-09T02:07:41;14.20;99.90
29413;DHT22;16389;50.126;8.450;2022-09-09T02:12:53;14.20;99.90
29413;DHT22;16389;50.126;8.450;2022-09-09T02:15:28;14.10;99.90
29413;DHT22;16389;50.126;8.450;2022-09-09T02:17:58;14.10;99.90
29413;DHT22;16389;50.126;8.450;2022-09-09T02:20:25;14.20;99.90
29413;DHT22;16389;50.126;8.450;2022-09-09T02:22:53;14.20;99.90
29413;DHT22;16389;50.126;8.450;2022-09-09T02:25:21;14.20;99.90
29413;DHT22;16389;50.126;8.450;2022-09-09T02:27:50;14.20;99.90
29413;DHT22;16389;50.126;8.450;2022-09-09T02:30:17;14.20;99.90
29413;DHT22;16389;50.126;8.450;2022-09-09T02:32:44;14.30;99.90
29413;DHT22;16389;50.126;8.450;2022-09-09T02:35:13;14.40;99.90
29413;DHT22;16389;50.126;8.450;2022-09-09T02:37:42;14.40;99.90
29413;DHT22;16389;50.126;8.450;2022-09-09T02:40:10;14.40;99.90
29413;DHT22;16389;50.126;8.450;2022-09-09T02:42:40;14.50;99.90
29413;DHT22;16389;50.126;8.450;2022-09-09T02:45:08;14.50;99.90
29413;DHT22;16389;50.126;8.450;2022-09-09T02:47:39;14.60;99.90
29413;DHT22;16389;50.126;8.450;2022-09-09T02:50:22;14.70;99.90
29413;DHT22;16389;50.126;8.450;2022-09-09T02:53:11;14.70;99.90
29413;DHT22;16389;50.126;8.450;2022-09-09T02:56:04;14.70;99.90
29413;DHT22;16389;50.126;8.450;2022-09-09T02:58:31;14.70;99.90
29413;DHT22;16389;50.126;8.450;2022-09-09T03:00:57;14.70;99.90
29413;DHT22;16389;50.126;8.450;2022-09-09T03:03:23;14.70;99.90
29413;DHT22;16389;50.126;8.450;2022-09-09T03:05:49;14.70;99.90
29413;DHT22;16389;50.126;8.450;2022-09-09T03:08:15;14.70;99.90
29413;DHT22;16389;50.126;8.450;2022-09-09T03:10:41;14.70;99.90
29413;DHT22;16389;50.126;8.450;2022-09-09T03:13:07;14.70;99.90
29413;DHT22;16389;50.126;8.450;2022-09-09T03:15:33;14.70;99.90
29413;DHT22;16389;50.126;8.450;2022-09-09T03:17:59;14.70;99.90
29413;DHT22;16389;50.126;8.450;2022-09-09T03:20:27;14.70;99.90
29413;DHT22;16389;50.126;8.450;2022-09-09T03:22:53;14.70;99.90
29413;DHT22;16389;50.126;8.450;2022-09-09T03:25:20;14.70;99.90
29413;DHT22;16389;50.126;8.450;2022-09-09T03:27:45;14.70;99.90
29413;DHT22;16389;50.126;8.450;2022-09-09T03:30:11;14.80;99.90
29413;DHT22;16389;50.126;8.450;2022-09-09T03:32:37;14.70;99.90
29413;DHT22;16389;50.126;8.450;2022-09-09T03:35:03;14.70;99.90
29413;DHT22;16389;50.126;8.450;2022-09-09T03:37:29;14.70;99.90
29413;DHT22;16389;50.126;8.450;2022-09-09T03:39:55;14.70;99.90
29413;DHT22;16389;50.126;8.450;2022-09-09T03:42:21;14.70;99.90
29413;DHT22;16389;50.126;8.450;2022-09-09T03:44:47;14.80;99.90
29413;DHT22;16389;50.126;8.450;2022-09-09T03:47:19;14.80;99.90
29413;DHT22;16389;50.126;8.450;2022-09-09T03:49:45;14.80;99.90
29413;DHT22;16389;50.126;8.450;2022-09-09T03:52:12;14.80;99.90
29413;DHT22;16389;50.126;8.450;2022-09-09T03:54:38;14.80;99.90
29413;DHT22;16389;50.126;8.450;2022-09-09T03:57:04;14.80;99.90
29413;DHT22;16389;50.126;8.450;2022-09-09T03:59:30;14.80;99.90
29413;DHT22;16389;50.126;8.450;2022-09-09T04:01:55;14.80;99.90
29413;DHT22;16389;50.126;8.450;2022-09-09T04:04:22;14.80;99.90
29413;DHT22;16389;50.126;8.450;2022-09-09T04:06:48;14.90;99.90
29413;DHT22;16389;50.126;8.450;2022-09-09T04:09:14;14.90;99.90
29413;DHT22;16389;50.126;8.450;2022-09-09T04:11:40;14.80;99.90
29413;DHT22;16389;50.126;8.450;2022-09-09T04:14:05;14.80;99.90
29413;DHT22;16389;50.126;8.450;2022-09-09T04:16:32;14.70;99.90
29413;DHT22;16389;50.126;8.450;2022-09-09T04:18:58;14.80;99.90
29413;DHT22;16389;50.126;8.450;2022-09-09T04:21:25;14.80;99.90
29413;DHT22;16389;50.126;8.450;2022-09-09T04:23:51;14.80;99.90
29413;DHT22;16389;50.126;8.450;2022-09-09T04:26:17;14.80;99.90
29413;DHT22;16389;50.126;8.450;2022-09-09T04:28:42;14.80;99.90
29413;DHT22;16389;50.126;8.450;2022-09-09T04:31:11;14.70;99.90
29413;DHT22;16389;50.126;8.450;2022-09-09T04:33:38;14.80;99.90
29413;DHT22;16389;50.126;8.450;2022-09-09T04:36:04;14.80;99.90
29413;DHT22;16389;50.126;8.450;2022-09-09T04:38:30;14.80;99.90
29413;DHT22;16389;50.126;8.450;2022-09-09T04:40:56;14.80;99.90
29413;DHT22;16389;50.126;8.450;2022-09-09T04:43:22;14.70;99.90
29413;DHT22;16389;50.126;8.450;2022-09-09T04:45:49;14.70;99.90
29413;DHT22;16389;50.126;8.450;2022-09-09T04:48:15;14.80;99.90
29413;DHT22;16389;50.126;8.450;2022-09-09T04:50:40;14.70;99.90
29413;DHT22;16389;50.126;8.450;2022-09-09T04:53:07;14.70;99.90
29413;DHT22;16389;50.126;8.450;2022-09-09T04:55:33;14.80;99.90
29413;DHT22;16389;50.126;8.450;2022-09-09T04:58:07;14.70;99.90
29413;DHT22;16389;50.126;8.450;2022-09-09T05:00:36;14.80;99.90
29413;DHT22;16389;50.126;8.450;2022-09-09T05:03:03;14.70;99.90
29413;DHT22;16389;50.126;8.450;2022-09-09T05:05:29;14.70;99.90
29413;DHT22;16389;50.126;8.450;2022-09-09T05:08:01;14.80;99.90
29413;DHT22;16389;50.126;8.450;2022-09-09T05:10:27;14.80;99.90
29413;DHT22;16389;50.126;8.450;2022-09-09T05:12:53;14.70;99.90
29413;DHT22;16389;50.126;8.450;2022-09-09T05:15:19;14.80;99.90
29413;DHT22;16389;50.126;8.450;2022-09-09T05:17:46;14.80;99.90
29413;DHT22;16389;50.126;8.450;2022-09-09T05:20:12;14.80;99.90
29413;DHT22;16389;50.126;8.450;2022-09-09T05:22:37;14.80;99.90
29413;DHT22;16389;50.126;8.450;2022-09-09T05:25:03;14.80;99.90
29413;DHT22;16389;50.126;8.450;2022-09-09T05:27:29;14.80;99.90
29413;DHT22;16389;50.126;8.450;2022-09-09T05:29:57;14.80;99.90
29413;DHT22;16389;50.126;8.450;2022-09-09T05:32:23;14.90;99.90
29413;DHT22;16389;50.126;8.450;2022-09-09T05:34:49;15.00;99.90
29413;DHT22;16389;50.126;8.450;2022-09-09T05:37:15;15.00;99.90
29413;DHT22;16389;50.126;8.450;2022-09-09T05:39:41;15.10;99.90
29413;DHT22;16389;50.126;8.450;2022-09-09T05:42:07;15.00;99.90
29413;DHT22;16389;50.126;8.450;2022-09-09T05:44:33;15.10;99.90
29413;DHT22;16389;50.126;8.450;2022-09-09T05:46:58;15.10;99.90
29413;DHT22;16389;50.126;8.450;2022-09-09T05:49:24;15.10;99.90
29413;DHT22;16389;50.126;8.450;2022-09-09T05:51:50;15.20;99.90
29413;DHT22;16389;50.126;8.450;2022-09-09T05:54:16;15.30;99.90
29413;DHT22;16389;50.126;8.450;2022-09-09T05:56:42;15.30;99.90
29413;DHT22;16389;50.126;8.450;2022-09-09T05:59:08;15.30;99.90
29413;DHT22;16389;50.126;8.450;2022-09-09T06:01:36;15.30;99.90
29413;DHT22;16389;50.126;8.450;2022-09-09T06:04:06;15.30;99.90
29413;DHT22;16389;50.126;8.450;2022-09-09T06:06:34;15.30;99.90
29413;DHT22;16389;50.126;8.450;2022-09-09T06:09:02;15.30;99.90
29413;DHT22;16389;50.126;8.450;2022-09-09T06:11:30;15.30;99.90
29413;DHT22;16389;50.126;8.450;2022-09-09T06:13:59;15.40;99.90
29413;DHT22;16389;50.126;8.450;2022-09-09T06:16:27;15.40;99.90
29413;DHT22;16389;50.126;8.450;2022-09-09T06:18:55;15.50;99.90
29413;DHT22;16389;50.126;8.450;2022-09-09T06:21:26;15.70;99.90
29413;DHT22;16389;50.126;8.450;2022-09-09T06:23:52;15.80;99.90
29413;DHT22;16389;50.126;8.450;2022-09-09T06:26:24;15.90;99.90
29413;DHT22;16389;50.126;8.450;2022-09-09T06:28:52;16.10;99.90
29413;DHT22;16389;50.126;8.450;2022-09-09T06:31:20;16.20;99.90
29413;DHT22;16389;50.126;8.450;2022-09-09T06:33:51;16.30;99.90
29413;DHT22;16389;50.126;8.450;2022-09-09T06:36:22;16.40;99.90
29413;DHT22;16389;50.126;8.450;2022-09-09T06:38:48;16.50;99.90
29413;DHT22;16389;50.126;8.450;2022-09-09T06:41:16;16.60;99.90
29413;DHT22;16389;50.126;8.450;2022-09-09T06:43:42;16.60;99.90
29413;DHT22;16389;50.126;8.450;2022-09-09T06:46:14;16.70;99.90
29413;DHT22;16389;50.126;8.450;2022-09-09T06:48:41;16.70;99.90
29413;DHT22;16389;50.126;8.450;2022-09-09T06:51:18;16.80;99.90
29413;DHT22;16389;50.126;8.450;2022-09-09T06:53:46;16.80;99.90
29413;DHT22;16389;50.126;8.450;2022-09-09T06:56:20;16.70;99.90
29413;DHT22;16389;50.126;8.450;2022-09-09T06:58:49;16.70;99.90
29413;DHT22;16389;50.126;8.450;2022-09-09T07:01:17;16.70;99.90
29413;DHT22;16389;50.126;8.450;2022-09-09T07:03:47;16.70;99.90
29413;DHT22;16389;50.126;8.450;2022-09-09T07:06:23;16.70;99.90
29413;DHT22;16389;50.126;8.450;2022-09-09T07:09:03;16.70;99.90
29413;DHT22;16389;50.126;8.450;2022-09-09T07:11:31;16.70;99.90
29413;DHT22;16389;50.126;8.450;2022-09-09T07:13:58;16.70;99.90
29413;DHT22;16389;50.126;8.450;2022-09-09T07:16:25;16.60;99.90
29413;DHT22;16389;50.126;8.450;2022-09-09T07:18:52;16.70;99.90
29413;DHT22;16389;50.126;8.450;2022-09-09T07:21:18;16.70;99.90
29413;DHT22;16389;50.126;8.450;2022-09-09T07:23:44;16.80;99.90
29413;DHT22;16389;50.126;8.450;2022-09-09T07:26:17;16.70;99.90
29413;DHT22;16389;50.126;8.450;2022-09-09T07:28:44;16.70;99.90
29413;DHT22;16389;50.126;8.450;2022-09-09T07:31:18;16.70;99.90
29413;DHT22;16389;50.126;8.450;2022-09-09T07:33:44;16.70;99.90
29413;DHT22;16389;50.126;8.450;2022-09-09T07:36:14;16.80;99.90
29413;DHT22;16389;50.126;8.450;2022-09-09T07:38:49;16.80;99.90
29413;DHT22;16389;50.126;8.450;2022-09-09T07:41:19;16.80;99.90
29413;DHT22;16389;50.126;8.450;2022-09-09T07:43:46;16.90;99.90
29413;DHT22;16389;50.126;8.450;2022-09-09T07:46:14;16.90;99.90
29413;DHT22;16389;50.126;8.450;2022-09-09T07:48:51;17.00;99.90
29413;DHT22;16389;50.126;8.450;2022-09-09T07:51:19;17.00;99.90
29413;DHT22;16389;50.126;8.450;2022-09-09T07:53:46;17.00;99.90
29413;DHT22;16389;50.126;8.450;2022-09-09T07:56:15;16.90;99.90
29413;DHT22;16389;50.126;8.450;2022-09-09T07:58:42;17.00;99.90
29413;DHT22;16389;50.126;8.450;2022-09-09T08:01:15;17.00;99.90
29413;DHT22;16389;50.126;8.450;2022-09-09T08:03:43;17.20;99.90
29413;DHT22;16389;50.126;8.450;2022-09-09T08:06:10;17.40;99.90
29413;DHT22;16389;50.126;8.450;2022-09-09T08:08:37;17.60;99.90
29413;DHT22;16389;50.126;8.450;2022-09-09T08:11:14;17.70;99.90
29413;DHT22;16389;50.126;8.450;2022-09-09T08:13:42;17.90;99.90
29413;DHT22;16389;50.126;8.450;2022-09-09T08:18:38;18.20;99.90
29413;DHT22;16389;50.126;8.450;2022-09-09T08:21:13;18.20;99.90
29413;DHT22;16389;50.126;8.450;2022-09-09T08:23:40;18.30;99.90
29413;DHT22;16389;50.126;8.450;2022-09-09T08:26:15;18.40;99.90
29413;DHT22;16389;50.126;8.450;2022-09-09T08:28:42;18.60;99.90
29413;DHT22;16389;50.126;8.450;2022-09-09T08:31:12;18.60;99.90
29413;DHT22;16389;50.126;8.450;2022-09-09T08:33:38;18.70;99.90
29413;DHT22;16389;50.126;8.450;2022-09-09T08:36:05;18.70;99.90
29413;DHT22;16389;50.126;8.450;2022-09-09T08:38:32;18.50;99.90
29413;DHT22;16389;50.126;8.450;2022-09-09T08:43:33;18.30;99.90
29413;DHT22;16389;50.126;8.450;2022-09-09T08:46:16;18.20;99.90
29413;DHT22;16389;50.126;8.450;2022-09-09T08:48:57;18.20;99.90
29413;DHT22;16389;50.126;8.450;2022-09-09T08:51:30;18.10;99.90
29413;DHT22;16389;50.126;8.450;2022-09-09T08:53:59;18.00;99.90
29413;DHT22;16389;50.126;8.450;2022-09-09T08:56:27;18.00;99.90
29413;DHT22;16389;50.126;8.450;2022-09-09T08:58:56;17.90;99.90
29413;DHT22;16389;50.126;8.450;2022-09-09T09:01:54;17.90;99.90
29413;DHT22;16389;50.126;8.450;2022-09-09T09:04:38;17.90;99.90
29413;DHT22;16389;50.126;8.450;2022-09-09T09:07:10;17.80;99.90
29413;DHT22;16389;50.126;8.450;2022-09-09T09:12:25;17.70;99.90
29413;DHT22;16389;50.126;8.450;2022-09-09T09:14:52;17.70;99.90
29413;DHT22;16389;50.126;8.450;2022-09-09T09:17:22;17.70;99.90
29413;DHT22;16389;50.126;8.450;2022-09-09T09:19:49;17.70;99.90
29413;DHT22;16389;50.126;8.450;2022-09-09T09:22:19;17.70;99.90
29413;DHT22;16389;50.126;8.450;2022-09-09T09:30:22;17.70;99.90
29413;DHT22;16389;50.126;8.450;2022-09-09T09:32:52;17.80;99.90
29413;DHT22;16389;50.126;8.450;2022-09-09T09:35:19;17.80;99.90
29413;DHT22;16389;50.126;8.450;2022-09-09T09:37:44;17.90;99.90
29413;DHT22;16389;50.126;8.450;2022-09-09T09:40:14;17.90;99.90
29413;DHT22;16389;50.126;8.450;2022-09-09T09:42:53;17.90;99.90
29413;DHT22;16389;50.126;8.450;2022-09-09T09:45:26;17.90;99.90
29413;DHT22;16389;50.126;8.450;2022-09-09T09:48:05;17.90;99.90
29413;DHT22;16389;50.126;8.450;2022-09-09T09:50:34;18.00;99.90
29413;DHT22;16389;50.126;8.450;2022-09-09T09:53:04;18.10;99.90
29413;DHT22;16389;50.126;8.450;2022-09-09T09:55:33;18.00;99.90
29413;DHT22;16389;50.126;8.450;2022-09-09T09:58:15;18.00;99.90
29413;DHT22;16389;50.126;8.450;2022-09-09T10:00:51;17.90;99.90
29413;DHT22;16389;50.126;8.450;2022-09-09T10:03:37;17.90;99.90
29413;DHT22;16389;50.126;8.450;2022-09-09T10:06:05;18.00;99.90
29413;DHT22;16389;50.126;8.450;2022-09-09T10:08:43;18.10;99.90
29413;DHT22;16389;50.126;8.450;2022-09-09T10:11:28;18.30;99.90
29413;DHT22;16389;50.126;8.450;2022-09-09T10:19:17;18.50;99.90
29413;DHT22;16389;50.126;8.450;2022-09-09T10:24:26;18.50;99.90
29413;DHT22;16389;50.126;8.450;2022-09-09T10:30:24;19.10;99.90
29413;DHT22;16389;50.126;8.450;2022-09-09T10:33:24;19.70;99.90
29413;DHT22;16389;50.126;8.450;2022-09-09T10:36:20;20.10;99.90
29413;DHT22;16389;50.126;8.450;2022-09-09T10:38:54;20.70;99.90
29413;DHT22;16389;50.126;8.450;2022-09-09T10:41:40;21.30;99.90
29413;DHT22;16389;50.126;8.450;2022-09-09T10:44:21;21.10;99.90
29413;DHT22;16389;50.126;8.450;2022-09-09T10:50:09;20.50;99.90
29413;DHT22;16389;50.126;8.450;2022-09-09T10:53:02;20.90;99.90
29413;DHT22;16389;50.126;8.450;2022-09-09T10:55:48;22.10;99.90
29413;DHT22;16389;50.126;8.450;2022-09-09T10:58:22;23.00;99.90
29413;DHT22;16389;50.126;8.450;2022-09-09T11:00:54;23.30;99.90
29413;DHT22;16389;50.126;8.450;2022-09-09T11:03:26;23.20;99.90
29413;DHT22;16389;50.126;8.450;2022-09-09T11:06:00;23.40;99.90
29413;DHT22;16389;50.126;8.450;2022-09-09T11:08:29;24.40;99.90
29413;DHT22;16389;50.126;8.450;2022-09-09T11:11:08;24.40;99.90
29413;DHT22;16389;50.126;8.450;2022-09-09T11:13:57;23.80;99.90
29413;DHT22;16389;50.126;8.450;2022-09-09T11:16:34;23.00;99.90
29413;DHT22;16389;50.126;8.450;2022-09-09T11:19:09;22.30;99.90
29413;DHT22;16389;50.126;8.450;2022-09-09T11:21:43;21.90;99.90
29413;DHT22;16389;50.126;8.450;2022-09-09T11:24:27;21.70;99.90
29413;DHT22;16389;50.126;8.450;2022-09-09T11:27:05;22.70;99.90
29413;DHT22;16389;50.126;8.450;2022-09-09T11:29:37;23.80;97.00
29413;DHT22;16389;50.126;8.450;2022-09-09T11:35:17;25.50;93.20
29413;DHT22;16389;50.126;8.450;2022-09-09T11:40:28;24.70;94.70
29413;DHT22;16389;50.126;8.450;2022-09-09T11:43:11;24.30;96.50
29413;DHT22;16389;50.126;8.450;2022-09-09T11:45:39;23.70;95.70
29413;DHT22;16389;50.126;8.450;2022-09-09T11:48:38;23.40;97.90
29413;DHT22;16389;50.126;8.450;2022-09-09T11:51:09;23.20;99.40
29413;DHT22;16389;50.126;8.450;2022-09-09T11:53:51;23.10;99.90
29413;DHT22;16389;50.126;8.450;2022-09-09T11:56:31;22.90;98.80
29413;DHT22;16389;50.126;8.450;2022-09-09T11:59:21;22.70;99.90
29413;DHT22;16389;50.126;8.450;2022-09-09T12:02:29;22.20;99.40
29413;DHT22;16389;50.126;8.450;2022-09-09T12:10:23;21.00;99.90
29413;DHT22;16389;50.126;8.450;2022-09-09T12:12:51;20.80;99.90
29413;DHT22;16389;50.126;8.450;2022-09-09T12:15:26;20.60;99.90
29413;DHT22;16389;50.126;8.450;2022-09-09T12:17:56;20.50;99.90
29413;DHT22;16389;50.126;8.450;2022-09-09T12:20:37;20.40;99.90
29413;DHT22;16389;50.126;8.450;2022-09-09T12:23:17;20.40;99.90
29413;DHT22;16389;50.126;8.450;2022-09-09T12:34:36;20.10;99.90
29413;DHT22;16389;50.126;8.450;2022-09-09T12:37:39;20.20;99.90
29413;DHT22;16389;50.126;8.450;2022-09-09T12:40:28;20.00;99.90
29413;DHT22;16389;50.126;8.450;2022-09-09T12:42:54;19.70;99.90
29413;DHT22;16389;50.126;8.450;2022-09-09T12:45:26;19.60;99.90
29413;DHT22;16389;50.126;8.450;2022-09-09T12:48:09;19.50;99.90
29413;DHT22;16389;50.126;8.450;2022-09-09T12:50:46;19.40;99.90
29413;DHT22;16389;50.126;8.450;2022-09-09T12:53:22;19.30;99.90
29413;DHT22;16389;50.126;8.450;2022-09-09T12:55:53;20.60;99.90
29413;DHT22;16389;50.126;8.450;2022-09-09T12:58:20;22.20;99.90
29413;DHT22;16389;50.126;8.450;2022-09-09T13:00:50;24.20;99.90
29413;DHT22;16389;50.126;8.450;2022-09-09T13:03:19;25.70;99.90
29413;DHT22;16389;50.126;8.450;2022-09-09T13:05:46;27.20;99.90
29413;DHT22;16389;50.126;8.450;2022-09-09T13:08:14;28.10;99.60
29413;DHT22;16389;50.126;8.450;2022-09-09T13:10:42;29.30;96.90
29413;DHT22;16389;50.126;8.450;2022-09-09T13:13:15;29.80;93.50
29413;DHT22;16389;50.126;8.450;2022-09-09T13:15:55;30.20;92.60
29413;DHT22;16389;50.126;8.450;2022-09-09T13:18:25;30.70;91.60
29413;DHT22;16389;50.126;8.450;2022-09-09T13:20:52;31.60;89.30
29413;DHT22;16389;50.126;8.450;2022-09-09T13:23:19;31.40;83.30
29413;DHT22;16389;50.126;8.450;2022-09-09T13:25:57;31.30;83.70
29413;DHT22;16389;50.126;8.450;2022-09-09T13:28:25;30.50;86.30
29413;DHT22;16389;50.126;8.450;2022-09-09T13:31:05;30.00;88.60
29413;DHT22;16389;50.126;8.450;2022-09-09T13:33:38;30.70;88.80
29413;DHT22;16389;50.126;8.450;2022-09-09T13:38:33;32.10;81.40
29413;DHT22;16389;50.126;8.450;2022-09-09T13:41:03;32.70;78.70
29413;DHT22;16389;50.126;8.450;2022-09-09T13:43:46;33.10;76.60
29413;DHT22;16389;50.126;8.450;2022-09-09T13:46:35;33.70;77.40
29413;DHT22;16389;50.126;8.450;2022-09-09T13:49:21;34.30;74.00
29413;DHT22;16389;50.126;8.450;2022-09-09T13:51:49;34.10;73.80
29413;DHT22;16389;50.126;8.450;2022-09-09T13:54:18;32.90;73.30
29413;DHT22;16389;50.126;8.450;2022-09-09T13:56:44;31.90;74.70
29413;DHT22;16389;50.126;8.450;2022-09-09T13:59:12;30.50;76.20
29413;DHT22;16389;50.126;8.450;2022-09-09T14:01:39;29.40;77.10
29413;DHT22;16389;50.126;8.450;2022-09-09T14:04:04;28.00;82.60
29413;DHT22;16389;50.126;8.450;2022-09-09T14:06:34;26.70;83.60
29413;DHT22;16389;50.126;8.450;2022-09-09T14:09:04;25.90;87.00
29413;DHT22;16389;50.126;8.450;2022-09-09T14:11:29;25.00;89.60
29413;DHT22;16389;50.126;8.450;2022-09-09T14:13:55;23.90;90.60
29413;DHT22;16389;50.126;8.450;2022-09-09T14:16:21;23.40;92.50
29413;DHT22;16389;50.126;8.450;2022-09-09T14:18:47;22.80;93.80
29413;DHT22;16389;50.126;8.450;2022-09-09T14:21:13;22.60;95.10
29413;DHT22;16389;50.126;8.450;2022-09-09T14:23:40;22.30;96.20
29413;DHT22;16389;50.126;8.450;2022-09-09T14:26:05;21.80;95.70
29413;DHT22;16389;50.126;8.450;2022-09-09T14:28:31;21.50;98.50
29413;DHT22;16389;50.126;8.450;2022-09-09T14:31:00;21.30;98.10
29413;DHT22;16389;50.126;8.450;2022-09-09T14:33:26;20.80;99.90
29413;DHT22;16389;50.126;8.450;2022-09-09T14:35:57;20.50;99.90
29413;DHT22;16389;50.126;8.450;2022-09-09T14:38:23;20.30;99.90
29413;DHT22;16389;50.126;8.450;2022-09-09T14:40:48;20.50;99.90
29413;DHT22;16389;50.126;8.450;2022-09-09T14:43:14;21.00;99.90
29413;DHT22;16389;50.126;8.450;2022-09-09T14:45:40;21.30;99.90
29413;DHT22;16389;50.126;8.450;2022-09-09T14:48:05;22.30;99.90
29413;DHT22;16389;50.126;8.450;2022-09-09T14:50:31;23.30;99.90
29413;DHT22;16389;50.126;8.450;2022-09-09T14:52:56;24.50;99.90
29413;DHT22;16389;50.126;8.450;2022-09-09T14:55:22;25.40;99.90
29413;DHT22;16389;50.126;8.450;2022-09-09T14:57:48;26.00;99.90
29413;DHT22;16389;50.126;8.450;2022-09-09T15:00:14;26.00;99.90
29413;DHT22;16389;50.126;8.450;2022-09-09T15:02:40;26.20;99.70
29413;DHT22;16389;50.126;8.450;2022-09-09T15:05:06;26.20;99.40
29413;DHT22;16389;50.126;8.450;2022-09-09T15:07:31;26.40;99.00
29413;DHT22;16389;50.126;8.450;2022-09-09T15:09:57;25.70;99.90
29413;DHT22;16389;50.126;8.450;2022-09-09T15:12:24;25.30;99.90
29413;DHT22;16389;50.126;8.450;2022-09-09T15:14:49;25.30;99.90
29413;DHT22;16389;50.126;8.450;2022-09-09T15:17:16;25.40;99.90
29413;DHT22;16389;50.126;8.450;2022-09-09T15:19:41;25.30;98.70
29413;DHT22;16389;50.126;8.450;2022-09-09T15:22:07;25.40;99.00
29413;DHT22;16389;50.126;8.450;2022-09-09T15:24:34;24.90;99.00
29413;DHT22;16389;50.126;8.450;2022-09-09T15:27:00;24.70;99.90
29413;DHT22;16389;50.126;8.450;2022-09-09T15:29:26;24.40;99.90
29413;DHT22;16389;50.126;8.450;2022-09-09T15:31:53;24.40;99.90
29413;DHT22;16389;50.126;8.450;2022-09-09T15:34:20;24.20;99.70
29413;DHT22;16389;50.126;8.450;2022-09-09T15:36:45;23.50;99.90
29413;DHT22;16389;50.126;8.450;2022-09-09T15:39:16;23.10;99.90
29413;DHT22;16389;50.126;8.450;2022-09-09T15:41:43;22.50;99.90
29413;DHT22;16389;50.126;8.450;2022-09-09T15:44:10;22.00;99.90
29413;DHT22;16389;50.126;8.450;2022-09-09T15:49:10;21.10;99.90
29413;DHT22;16389;50.126;8.450;2022-09-09T15:51:38;20.90;99.90
29413;DHT22;16389;50.126;8.450;2022-09-09T15:54:04;20.50;99.90
29413;DHT22;16389;50.126;8.450;2022-09-09T15:56:30;20.00;99.90
29413;DHT22;16389;50.126;8.450;2022-09-09T15:58:57;19.90;99.90
29413;DHT22;16389;50.126;8.450;2022-09-09T16:01:24;19.60;99.90
29413;DHT22;16389;50.126;8.450;2022-09-09T16:03:50;19.50;99.90
29413;DHT22;16389;50.126;8.450;2022-09-09T16:06:19;19.40;99.90
29413;DHT22;16389;50.126;8.450;2022-09-09T16:08:48;19.20;99.90
29413;DHT22;16389;50.126;8.450;2022-09-09T16:11:29;19.20;99.90
29413;DHT22;16389;50.126;8.450;2022-09-09T16:13:56;19.20;99.90
29413;DHT22;16389;50.126;8.450;2022-09-09T16:16:24;19.10;99.90
29413;DHT22;16389;50.126;8.450;2022-09-09T16:18:53;19.10;99.90
29413;DHT22;16389;50.126;8.450;2022-09-09T16:21:28;19.00;99.90
29413;DHT22;16389;50.126;8.450;2022-09-09T16:23:55;18.90;99.90
29413;DHT22;16389;50.126;8.450;2022-09-09T16:26:21;18.90;99.90
29413;DHT22;16389;50.126;8.450;2022-09-09T16:28:47;18.90;99.90
29413;DHT22;16389;50.126;8.450;2022-09-09T16:31:19;18.80;99.90
29413;DHT22;16389;50.126;8.450;2022-09-09T16:33:45;18.70;99.90
29413;DHT22;16389;50.126;8.450;2022-09-09T16:36:14;18.70;99.90
29413;DHT22;16389;50.126;8.450;2022-09-09T16:38:40;18.70;99.90
29413;DHT22;16389;50.126;8.450;2022-09-09T16:41:07;18.70;99.90
29413;DHT22;16389;50.126;8.450;2022-09-09T16:43:34;18.60;99.90
29413;DHT22;16389;50.126;8.450;2022-09-09T16:46:00;18.60;99.90
29413;DHT22;16389;50.126;8.450;2022-09-09T16:48:30;18.60;99.90
29413;DHT22;16389;50.126;8.450;2022-09-09T16:51:07;18.60;99.90
29413;DHT22;16389;50.126;8.450;2022-09-09T16:53:35;18.50;99.90
29413;DHT22;16389;50.126;8.450;2022-09-09T16:56:08;18.60;99.90
29413;DHT22;16389;50.126;8.450;2022-09-09T16:58:34;18.50;99.90
29413;DHT22;16389;50.126;8.450;2022-09-09T17:01:00;18.50;99.90
29413;DHT22;16389;50.126;8.450;2022-09-09T17:03:27;18.60;99.90
29413;DHT22;16389;50.126;8.450;2022-09-09T17:05:53;18.50;99.90
29413;DHT22;16389;50.126;8.450;2022-09-09T17:08:19;18.60;99.90
29413;DHT22;16389;50.126;8.450;2022-09-09T17:10:45;18.40;99.90
29413;DHT22;16389;50.126;8.450;2022-09-09T17:13:11;18.40;99.90
29413;DHT22;16389;50.126;8.450;2022-09-09T17:15:42;18.40;99.90